createdAt,value
2022-12-17T00:02:23.371Z,7.16
2022-12-17T00:05:08.638Z,7.53
2022-12-17T00:07:54.977Z,7.28
2022-12-17T00:10:41.723Z,7.35
2022-12-17T00:13:37.452Z,7.21
2022-12-17T00:16:25.881Z,7.17
2022-12-17T00:19:12.523Z,7.26
2022-12-17T00:21:58.069Z,7.25
2022-12-17T00:24:43.944Z,7.23
2022-12-17T00:27:29.307Z,7.35
2022-12-17T00:30:14.650Z,6.59
2022-12-17T00:33:00.045Z,7.09
2022-12-17T00:35:46.593Z,7.35
2022-12-17T00:38:34.041Z,7.19
2022-12-17T00:41:33.686Z,7.01
2022-12-17T00:44:19.244Z,7.02
2022-12-17T00:47:04.638Z,6.90
2022-12-17T00:49:50.065Z,6.86
2022-12-17T00:52:37.257Z,6.90
2022-12-17T00:55:23.620Z,7.05
2022-12-17T00:58:12.461Z,6.92
2022-12-17T01:00:57.988Z,6.72
2022-12-17T01:03:43.302Z,6.81
2022-12-17T01:06:29.286Z,6.83
2022-12-17T01:09:16.530Z,6.65
2022-12-17T01:12:02.129Z,6.83
2022-12-17T01:14:47.384Z,6.98
2022-12-17T01:17:41.287Z,6.93
2022-12-17T01:20:27.219Z,6.76
2022-12-17T01:23:12.424Z,6.79
2022-12-17T01:25:59.310Z,6.79
2022-12-17T01:28:45.914Z,6.62
2022-12-17T01:31:34.979Z,6.54
2022-12-17T01:34:20.645Z,6.62
2022-12-17T01:37:06.186Z,6.43
2022-12-17T01:39:51.540Z,6.49
2022-12-17T01:42:38.450Z,6.68
2022-12-17T01:45:25.987Z,6.71
2022-12-17T01:48:26.758Z,6.67
2022-12-17T01:51:15.115Z,6.53
2022-12-17T01:54:06.299Z,6.73
2022-12-17T01:56:52.510Z,6.77
2022-12-17T01:59:44.580Z,6.74
2022-12-17T02:02:30.163Z,6.71
2022-12-17T02:05:15.487Z,6.58
2022-12-17T02:08:11.409Z,6.54
2022-12-17T02:11:10.250Z,6.52
2022-12-17T02:14:00.524Z,6.56
2022-12-17T02:16:54.098Z,6.57
2022-12-17T02:19:49.714Z,6.54
2022-12-17T02:22:45.740Z,6.50
2022-12-17T02:25:37.230Z,6.39
2022-12-17T02:28:24.206Z,6.44
2022-12-17T02:31:10.016Z,6.46
2022-12-17T02:33:55.654Z,6.50
2022-12-17T02:36:41.050Z,6.43
2022-12-17T02:39:26.083Z,6.46
2022-12-17T02:42:15.593Z,6.36
2022-12-17T02:45:02.770Z,6.58
2022-12-17T02:47:48.246Z,6.53
2022-12-17T02:50:33.924Z,6.50
2022-12-17T02:53:21.478Z,6.49
2022-12-17T02:56:06.889Z,6.50
2022-12-17T02:58:52.329Z,6.20
2022-12-17T03:01:39.503Z,6.46
2022-12-17T03:04:25.061Z,6.38
2022-12-17T03:07:10.220Z,6.61
2022-12-17T03:09:55.477Z,6.59
2022-12-17T03:12:40.875Z,6.60
2022-12-17T03:15:26.773Z,6.66
2022-12-17T03:18:13.949Z,6.67
2022-12-17T03:20:59.501Z,6.65
2022-12-17T03:23:44.783Z,6.59
2022-12-17T03:26:30.326Z,6.67
2022-12-17T03:29:24.098Z,6.55
2022-12-17T03:32:10.447Z,6.70
2022-12-17T03:34:57.251Z,6.68
2022-12-17T03:37:42.624Z,6.52
2022-12-17T03:40:29.496Z,6.54
2022-12-17T03:43:23.279Z,6.69
2022-12-17T03:46:11.230Z,6.53
2022-12-17T03:48:56.781Z,6.50
2022-12-17T03:51:43.429Z,6.87
2022-12-17T03:54:28.517Z,6.84
2022-12-17T03:57:16.184Z,6.88
2022-12-17T04:00:01.716Z,6.90
2022-12-17T04:02:48.288Z,6.83
2022-12-17T04:05:33.656Z,6.79
2022-12-17T04:08:20.307Z,6.65
2022-12-17T04:11:05.676Z,6.81
2022-12-17T04:13:51.120Z,6.69
2022-12-17T04:16:36.389Z,6.79
2022-12-17T04:19:21.655Z,6.76
2022-12-17T04:22:06.959Z,6.83
2022-12-17T04:24:52.921Z,6.87
2022-12-17T04:27:38.438Z,6.76
2022-12-17T04:30:24.250Z,6.88
2022-12-17T04:33:09.881Z,6.82
2022-12-17T04:35:54.838Z,6.83
2022-12-17T04:38:40.283Z,6.70
2022-12-17T04:41:27.271Z,6.70
2022-12-17T04:44:12.716Z,6.82
2022-12-17T04:46:57.871Z,6.96
2022-12-17T04:49:43.348Z,7.00
2022-12-17T04:52:28.838Z,6.93
2022-12-17T04:55:14.232Z,6.94
2022-12-17T04:58:00.858Z,7.05
2022-12-17T05:00:48.603Z,7.26
2022-12-17T05:03:35.528Z,7.21
2022-12-17T05:06:21.393Z,7.21
2022-12-17T05:09:06.808Z,7.18
2022-12-17T05:11:52.083Z,7.33
2022-12-17T05:14:38.746Z,7.24
2022-12-17T05:17:25.187Z,7.05
2022-12-17T05:20:10.684Z,7.04
2022-12-17T05:22:55.794Z,6.60
2022-12-17T05:25:55.423Z,7.07
2022-12-17T05:28:40.403Z,7.15
2022-12-17T05:31:27.100Z,7.05
2022-12-17T05:34:12.516Z,7.29
2022-12-17T05:36:57.758Z,7.18
2022-12-17T05:39:44.836Z,7.24
2022-12-17T05:42:29.952Z,7.18
2022-12-17T05:45:15.313Z,7.21
2022-12-17T05:48:01.983Z,7.18
2022-12-17T05:50:47.392Z,7.28
2022-12-17T05:53:29.148Z,7.23
2022-12-17T05:56:14.674Z,6.95
2022-12-17T05:59:00.033Z,7.39
2022-12-17T06:01:45.274Z,7.44
2022-12-17T06:04:32.430Z,7.56
2022-12-17T06:07:17.695Z,7.66
2022-12-17T06:10:03.175Z,7.70
2022-12-17T06:12:48.595Z,7.67
2022-12-17T06:15:34.113Z,7.68
2022-12-17T06:18:19.569Z,8.09
2022-12-17T06:21:06.298Z,8.49
2022-12-17T06:23:51.763Z,8.62
2022-12-17T06:26:37.472Z,8.74
2022-12-17T06:29:22.905Z,9.32
2022-12-17T06:32:08.512Z,9.18
2022-12-17T06:34:53.826Z,9.07
2022-12-17T06:37:40.480Z,9.27
2022-12-17T06:40:26.799Z,9.02
2022-12-17T06:43:12.628Z,9.40
2022-12-17T06:45:58.161Z,8.80
2022-12-17T06:48:43.330Z,9.25
2022-12-17T06:51:28.615Z,8.92
2022-12-17T06:54:15.564Z,8.73
2022-12-17T06:57:01.095Z,8.90
2022-12-17T06:59:46.610Z,9.19
2022-12-17T07:02:31.855Z,9.77
2022-12-17T07:05:17.278Z,10.36
2022-12-17T07:08:02.425Z,10.75
2022-12-17T07:10:49.399Z,11.03
2022-12-17T07:13:35.126Z,11.25
2022-12-17T07:16:20.626Z,11.12
2022-12-17T07:19:06.440Z,11.37
2022-12-17T07:21:51.022Z,11.27
2022-12-17T07:24:36.608Z,11.16
2022-12-17T07:27:23.873Z,10.93
2022-12-17T07:30:08.925Z,10.53
2022-12-17T07:32:54.397Z,10.65
2022-12-17T07:35:39.879Z,10.66
2022-12-17T07:38:25.276Z,10.70
2022-12-17T07:41:10.822Z,10.62
2022-12-17T07:43:57.482Z,10.48
2022-12-17T07:46:42.995Z,10.43
2022-12-17T07:49:28.162Z,10.33
2022-12-17T07:52:13.394Z,10.38
2022-12-17T07:54:58.760Z,10.48
2022-12-17T07:57:43.962Z,10.25
2022-12-17T08:00:32.486Z,9.95
2022-12-17T08:03:18.594Z,10.22
2022-12-17T08:06:09.558Z,10.29
2022-12-17T08:08:57.817Z,10.54
2022-12-17T08:11:44.962Z,10.82
2022-12-17T08:14:30.128Z,10.97
2022-12-17T08:17:19.051Z,11.07
2022-12-17T08:20:00.943Z,11.11
2022-12-17T08:22:47.050Z,11.22
2022-12-17T08:25:32.207Z,11.35
2022-12-17T08:28:48.927Z,11.44
2022-12-17T08:31:24.513Z,11.41
2022-12-17T08:34:14.384Z,11.43
2022-12-17T08:36:59.440Z,11.54
2022-12-17T08:39:44.977Z,11.61
2022-12-17T08:42:30.498Z,12.21
2022-12-17T08:45:15.993Z,12.68
2022-12-17T08:48:04.069Z,13.69
2022-12-17T08:51:02.542Z,14.03
2022-12-17T08:53:47.856Z,14.62
2022-12-17T08:56:33.482Z,15.62
2022-12-17T08:59:19.077Z,16.09
2022-12-17T09:02:04.235Z,16.31
2022-12-17T09:04:49.528Z,16.02
2022-12-17T09:07:36.594Z,15.69
2022-12-17T09:10:22.607Z,16.27
2022-12-17T09:13:08.160Z,16.66
2022-12-17T09:15:53.509Z,15.99
2022-12-17T09:18:39.879Z,15.43
2022-12-17T09:21:26.050Z,14.90
2022-12-17T09:24:12.898Z,15.02
2022-12-17T09:26:58.202Z,14.88
2022-12-17T09:29:43.388Z,14.40
2022-12-17T09:32:28.728Z,14.20
2022-12-17T09:35:14.219Z,13.87
2022-12-17T09:37:59.180Z,13.73
2022-12-17T09:40:46.032Z,13.51
2022-12-17T09:43:42.528Z,12.72
2022-12-17T09:46:39.146Z,13.21
2022-12-17T09:49:35.135Z,13.12
2022-12-17T09:52:30.579Z,12.96
2022-12-17T09:55:16.163Z,12.62
2022-12-17T09:58:02.779Z,12.84
2022-12-17T10:00:48.202Z,12.75
2022-12-17T10:03:36.145Z,12.63
2022-12-17T10:06:27.488Z,12.56
2022-12-17T10:09:17.772Z,12.18
2022-12-17T10:12:03.248Z,12.23
2022-12-17T10:14:50.170Z,11.68
2022-12-17T10:17:42.237Z,11.17
2022-12-17T10:20:39.683Z,10.89
2022-12-17T10:23:25.156Z,10.75
2022-12-17T10:26:12.509Z,10.74
2022-12-17T10:28:58.564Z,10.66
2022-12-17T10:31:49.061Z,10.46
2022-12-17T10:34:36.786Z,10.37
2022-12-17T10:37:23.134Z,10.40
2022-12-17T10:40:14.482Z,10.46
2022-12-17T10:42:59.879Z,10.45
2022-12-17T10:45:55.728Z,10.48
2022-12-17T10:48:43.917Z,10.52
2022-12-17T10:51:38.767Z,10.45
2022-12-17T10:54:29.283Z,10.46
2022-12-17T10:57:19.683Z,10.50
2022-12-17T11:00:05.815Z,10.57
2022-12-17T11:02:51.895Z,10.64
2022-12-17T11:05:46.180Z,10.70
2022-12-17T11:08:34.850Z,10.79
2022-12-17T11:11:23.331Z,10.98
2022-12-17T11:14:12.203Z,11.25
2022-12-17T11:17:11.060Z,11.54
2022-12-17T11:20:02.922Z,11.86
2022-12-17T11:22:57.229Z,11.82
2022-12-17T11:25:51.146Z,11.85
2022-12-17T11:28:41.206Z,11.75
2022-12-17T11:31:52.344Z,11.63
2022-12-17T11:34:45.846Z,11.71
2022-12-17T11:37:37.382Z,11.50
2022-12-17T11:40:38.899Z,11.19
2022-12-17T11:43:34.276Z,11.09
2022-12-17T11:46:28.444Z,10.96
2022-12-17T11:49:23.787Z,10.86
2022-12-17T11:52:18.854Z,10.81
2022-12-17T11:55:12.989Z,10.88
2022-12-17T11:58:12.601Z,10.82
2022-12-17T12:01:16.552Z,10.80
2022-12-17T12:04:15.029Z,11.01
2022-12-17T12:07:12.222Z,11.10
2022-12-17T12:10:06.801Z,11.08
2022-12-17T12:13:05.406Z,11.08
2022-12-17T12:16:09.319Z,11.10
2022-12-17T12:19:02.332Z,11.07
2022-12-17T12:21:58.124Z,11.25
2022-12-17T12:25:05.925Z,11.47
2022-12-17T12:27:59.375Z,11.62
2022-12-17T12:30:51.565Z,11.56
2022-12-17T12:33:47.981Z,11.42
2022-12-17T12:36:37.524Z,11.34
2022-12-17T12:39:29.156Z,11.14
2022-12-17T12:42:21.973Z,11.13
2022-12-17T12:45:16.912Z,11.18
2022-12-17T12:48:15.975Z,11.39
2022-12-17T12:51:09.614Z,11.38
2022-12-17T12:53:55.227Z,11.38
2022-12-17T12:56:45.459Z,11.33
2022-12-17T12:59:39.965Z,11.20
2022-12-17T13:02:37.630Z,11.00
2022-12-17T13:05:33.342Z,10.97
2022-12-17T13:08:19.491Z,11.06
2022-12-17T13:10:48.396Z,10.82
2022-12-17T13:13:29.132Z,10.79
2022-12-17T13:16:02.208Z,10.93
2022-12-17T13:18:34.549Z,10.91
2022-12-17T13:21:06.998Z,10.87
2022-12-17T13:23:36.901Z,10.97
2022-12-17T13:26:25.558Z,10.95
2022-12-17T13:29:03.291Z,11.09
2022-12-17T13:31:34.613Z,11.07
2022-12-17T13:34:13.117Z,10.84
2022-12-17T13:36:49.164Z,10.87
2022-12-17T13:39:29.822Z,11.10
2022-12-17T13:41:58.028Z,11.02
2022-12-17T13:44:29.615Z,10.93
2022-12-17T13:46:58.343Z,11.04
2022-12-17T13:49:28.453Z,11.11
2022-12-17T13:52:11.418Z,11.18
2022-12-17T13:54:39.898Z,11.13
2022-12-17T13:57:09.722Z,11.13
2022-12-17T13:59:37.797Z,11.17
2022-12-17T14:02:06.241Z,11.06
2022-12-17T14:04:34.395Z,11.12
2022-12-17T14:07:06.985Z,11.18
2022-12-17T14:09:40.132Z,11.18
2022-12-17T14:12:25.181Z,11.06
2022-12-17T14:14:57.253Z,11.03
2022-12-17T14:17:27.275Z,11.03
2022-12-17T14:20:00.525Z,11.00
2022-12-17T14:22:35.811Z,10.91
2022-12-17T14:25:04.508Z,10.82
2022-12-17T14:27:34.912Z,10.79
2022-12-17T14:30:04.308Z,10.78
2022-12-17T14:32:35.332Z,10.77
2022-12-17T14:35:04.620Z,10.77
2022-12-17T14:37:33.926Z,10.82
2022-12-17T14:40:05.422Z,10.90
2022-12-17T14:42:37.710Z,10.92
2022-12-17T14:45:09.147Z,10.83
2022-12-17T14:47:38.953Z,10.82
2022-12-17T14:50:24.438Z,10.80
2022-12-17T14:52:55.381Z,10.78
2022-12-17T14:55:28.959Z,10.73
2022-12-17T14:58:25.625Z,10.70
2022-12-17T15:00:57.069Z,10.65
2022-12-17T15:03:28.075Z,10.55
2022-12-17T15:05:59.438Z,10.59
2022-12-17T15:08:34.775Z,10.54
2022-12-17T15:11:02.999Z,10.47
2022-12-17T15:13:30.904Z,10.43
2022-12-17T15:15:59.103Z,10.32
2022-12-17T15:18:26.962Z,10.37
2022-12-17T15:20:54.871Z,10.35
2022-12-17T15:23:24.313Z,10.22
2022-12-17T15:25:54.782Z,10.31
2022-12-17T15:28:27.882Z,10.34
2022-12-17T15:30:55.763Z,10.34
2022-12-17T15:33:23.690Z,10.27
2022-12-17T15:35:51.676Z,10.14
2022-12-17T15:38:19.775Z,10.16
2022-12-17T15:40:47.645Z,10.18
2022-12-17T15:43:16.062Z,10.10
2022-12-17T15:45:45.711Z,10.14
2022-12-17T15:48:17.432Z,10.13
2022-12-17T15:50:45.302Z,10.06
2022-12-17T15:53:13.284Z,9.87
2022-12-17T15:55:41.790Z,9.96
2022-12-17T15:58:11.676Z,9.98
2022-12-17T16:00:40.918Z,9.91
2022-12-17T16:03:08.833Z,9.92
2022-12-17T16:05:36.725Z,9.92
2022-12-17T16:08:04.765Z,9.90
2022-12-17T16:10:32.662Z,9.95
2022-12-17T16:13:00.499Z,9.94
2022-12-17T16:15:28.430Z,9.85
2022-12-17T16:17:57.805Z,9.78
2022-12-17T16:20:25.706Z,9.70
2022-12-17T16:22:53.527Z,9.59
2022-12-17T16:25:21.448Z,9.57
2022-12-17T16:27:49.278Z,9.53
2022-12-17T16:30:17.266Z,9.39
2022-12-17T16:32:45.846Z,9.51
2022-12-17T16:35:15.239Z,9.51
2022-12-17T16:37:43.154Z,9.36
2022-12-17T16:40:12.511Z,9.55
2022-12-17T16:42:40.393Z,9.58
2022-12-17T16:45:09.199Z,9.43
2022-12-17T16:47:37.119Z,9.52
2022-12-17T16:50:05.918Z,9.61
2022-12-17T16:52:35.223Z,9.56
2022-12-17T16:55:03.115Z,9.56
2022-12-17T16:57:31.060Z,9.57
2022-12-17T16:59:59.100Z,9.40
2022-12-17T17:02:27.239Z,9.43
2022-12-17T17:04:55.249Z,9.49
2022-12-17T17:07:23.069Z,9.54
2022-12-17T17:09:54.221Z,9.41
2022-12-17T17:12:22.235Z,9.63
2022-12-17T17:14:52.761Z,9.67
2022-12-17T17:17:55.610Z,9.67
2022-12-17T17:20:09.160Z,9.62
2022-12-17T17:22:37.246Z,9.24
2022-12-17T17:25:07.097Z,9.22
2022-12-17T17:27:35.295Z,9.30
2022-12-17T17:30:04.177Z,9.28
2022-12-17T17:32:32.138Z,9.27
2022-12-17T17:35:00.079Z,9.24
2022-12-17T17:37:28.057Z,9.21
2022-12-17T17:39:56.058Z,9.32
2022-12-17T17:42:25.268Z,9.40
2022-12-17T17:44:53.261Z,9.43
2022-12-17T17:47:21.156Z,9.43
2022-12-17T17:49:49.014Z,9.45
2022-12-17T17:52:17.901Z,9.47
2022-12-17T17:54:45.767Z,9.40
2022-12-17T17:57:13.663Z,9.39
2022-12-17T17:59:42.989Z,9.36
2022-12-17T18:02:12.012Z,9.23
2022-12-17T18:04:39.980Z,9.08
2022-12-17T18:09:55.981Z,8.77
2022-12-17T18:12:47.376Z,8.77
2022-12-17T18:15:18.098Z,8.76
2022-12-17T18:17:47.910Z,8.68
2022-12-17T18:20:16.833Z,8.69
2022-12-17T18:22:46.835Z,8.66
2022-12-17T18:25:15.595Z,8.69
2022-12-17T18:27:43.605Z,8.73
2022-12-17T18:30:12.175Z,8.62
2022-12-17T18:32:41.409Z,8.33
2022-12-17T18:35:10.491Z,8.51
2022-12-17T18:37:39.056Z,8.60
2022-12-17T18:40:08.565Z,8.70
2022-12-17T18:42:54.086Z,8.71
2022-12-17T18:45:22.183Z,8.62
2022-12-17T18:47:51.961Z,8.68
2022-12-17T18:50:19.998Z,8.77
2022-12-17T18:52:47.885Z,8.79
2022-12-17T18:55:16.325Z,8.81
2022-12-17T18:57:44.197Z,8.83
2022-12-17T19:00:13.334Z,8.74
2022-12-17T19:02:41.367Z,8.38
2022-12-17T19:05:10.813Z,8.81
2022-12-17T19:07:38.711Z,8.85
2022-12-17T19:10:07.522Z,8.88
2022-12-17T19:12:35.859Z,8.90
2022-12-17T19:15:06.188Z,8.90
2022-12-17T19:17:34.073Z,8.78
2022-12-17T19:20:01.903Z,8.93
2022-12-17T19:22:31.138Z,8.99
2022-12-17T19:24:59.035Z,8.91
2022-12-17T19:27:26.936Z,8.99
2022-12-17T19:29:56.463Z,8.97
2022-12-17T19:32:24.830Z,8.92
2022-12-17T19:34:52.718Z,8.87
2022-12-17T19:37:20.514Z,8.95
2022-12-17T19:39:49.743Z,8.96
2022-12-17T19:42:25.489Z,8.82
2022-12-17T19:44:53.999Z,8.73
2022-12-17T19:47:22.771Z,8.91
2022-12-17T19:49:51.294Z,8.98
2022-12-17T19:52:19.241Z,8.95
2022-12-17T19:54:47.066Z,8.89
2022-12-17T19:57:16.286Z,8.88
2022-12-17T19:59:44.165Z,8.81
2022-12-17T20:02:12.937Z,8.77
2022-12-17T20:04:40.974Z,8.63
2022-12-17T20:07:08.819Z,8.67
2022-12-17T20:09:36.627Z,8.67
2022-12-17T20:12:04.883Z,8.72
2022-12-17T20:14:35.339Z,8.71
2022-12-17T20:17:05.048Z,8.69
2022-12-17T20:19:34.771Z,8.56
2022-12-17T20:22:04.685Z,8.66
2022-12-17T20:24:33.012Z,8.70
2022-12-17T20:27:01.810Z,8.45
2022-12-17T20:29:29.797Z,8.73
2022-12-17T20:32:01.833Z,8.75
2022-12-17T20:34:29.799Z,8.72
2022-12-17T20:36:57.695Z,8.74
2022-12-17T20:39:28.228Z,8.74
2022-12-17T20:41:57.226Z,8.68
2022-12-17T20:44:25.184Z,8.68
2022-12-17T20:46:53.251Z,8.73
2022-12-17T20:49:22.701Z,8.73
2022-12-17T20:51:50.585Z,8.78
2022-12-17T20:54:18.641Z,8.69
2022-12-17T20:56:46.584Z,8.75
2022-12-17T20:59:17.839Z,8.68
2022-12-17T21:01:50.256Z,8.53
2022-12-17T21:04:22.343Z,8.66
2022-12-17T21:06:50.230Z,8.62
2022-12-17T21:09:20.897Z,8.64
2022-12-17T21:11:49.426Z,8.60
2022-12-17T21:14:19.176Z,8.66
2022-12-17T21:16:47.782Z,8.52
2022-12-17T21:19:18.061Z,8.45
2022-12-17T21:21:47.437Z,8.59
2022-12-17T21:24:15.487Z,8.53
2022-12-17T21:26:44.793Z,8.51
2022-12-17T21:29:13.167Z,8.59
2022-12-17T21:31:44.014Z,8.62
2022-12-17T21:34:14.340Z,8.67
2022-12-17T21:36:42.794Z,8.60
2022-12-17T21:39:14.794Z,8.59
2022-12-17T21:42:12.727Z,8.51
2022-12-17T21:44:40.636Z,8.48
2022-12-17T21:47:08.673Z,8.48
2022-12-17T21:49:36.571Z,8.53
2022-12-17T21:52:04.817Z,8.43
2022-12-17T21:54:37.166Z,8.48
2022-12-17T21:57:05.578Z,8.52
2022-12-17T21:59:33.454Z,8.44
2022-12-17T22:02:01.377Z,8.40
2022-12-17T22:04:29.374Z,8.31
2022-12-17T22:07:05.825Z,8.35
2022-12-17T22:10:17.269Z,8.32
2022-12-17T22:12:51.650Z,8.28
2022-12-17T22:15:19.657Z,8.11
2022-12-17T22:17:48.686Z,8.11
2022-12-17T22:20:17.745Z,8.07
2022-12-17T22:22:46.194Z,8.07
2022-12-17T22:25:16.247Z,8.09
2022-12-17T22:27:44.264Z,7.99
2022-12-17T22:30:34.107Z,7.91
2022-12-17T22:33:12.081Z,7.82
2022-12-17T22:38:29.873Z,7.87
2022-12-17T22:42:45.391Z,7.73
2022-12-17T22:44:45.246Z,7.77
2022-12-17T22:44:53.354Z,7.74
2022-12-17T22:47:21.955Z,7.66
2022-12-17T22:49:49.897Z,7.68
2022-12-17T22:52:19.063Z,7.61
2022-12-17T22:54:48.051Z,7.60
2022-12-17T22:57:36.162Z,7.57
2022-12-17T23:00:09.775Z,7.49
2022-12-17T23:02:37.914Z,7.47
2022-12-17T23:05:06.291Z,7.42
2022-12-17T23:07:34.141Z,7.35
2022-12-17T23:10:02.257Z,7.31
2022-12-17T23:12:48.684Z,7.23
2022-12-17T23:15:16.530Z,7.13
2022-12-17T23:17:44.403Z,7.18
2022-12-17T23:20:12.855Z,7.19
2022-12-17T23:22:40.771Z,7.16
2022-12-17T23:25:09.711Z,7.09
2022-12-17T23:27:41.919Z,7.10
2022-12-17T23:30:10.926Z,6.99
2022-12-17T23:32:38.918Z,7.04
2022-12-17T23:35:07.927Z,6.82
2022-12-17T23:37:39.776Z,6.88
2022-12-17T23:40:12.085Z,6.83
2022-12-17T23:42:41.318Z,6.76
2022-12-17T23:45:11.490Z,6.42
2022-12-17T23:47:39.981Z,6.70
2022-12-17T23:50:10.532Z,6.57
2022-12-17T23:52:39.167Z,6.47
2022-12-17T23:55:09.108Z,6.52
2022-12-17T23:57:36.991Z,6.50
